sensor_id;sensor_type;location;lat;lon;timestamp;temperature;humidity
11824;DHT22;5969;50.780;7.726;2022-09-03T00:01:09;10.90;99.90
11824;DHT22;5969;50.780;7.726;2022-09-03T00:03:44;10.90;99.90
11824;DHT22;5969;50.780;7.726;2022-09-03T00:06:14;10.90;99.90
11824;DHT22;5969;50.780;7.726;2022-09-03T00:08:47;10.90;99.90
11824;DHT22;5969;50.780;7.726;2022-09-03T00:11:18;10.80;99.90
11824;DHT22;5969;50.780;7.726;2022-09-03T00:13:51;10.80;99.90
11824;DHT22;5969;50.780;7.726;2022-09-03T00:16:25;10.70;99.90
11824;DHT22;5969;50.780;7.726;2022-09-03T00:18:57;10.70;99.90
11824;DHT22;5969;50.780;7.726;2022-09-03T00:21:33;10.70;99.90
11824;DHT22;5969;50.780;7.726;2022-09-03T00:24:03;10.70;99.90
11824;DHT22;5969;50.780;7.726;2022-09-03T00:26:33;10.70;99.90
11824;DHT22;5969;50.780;7.726;2022-09-03T00:29:04;10.70;99.90
11824;DHT22;5969;50.780;7.726;2022-09-03T00:31:35;10.70;99.90
11824;DHT22;5969;50.780;7.726;2022-09-03T00:34:06;10.70;99.90
11824;DHT22;5969;50.780;7.726;2022-09-03T00:36:38;10.70;99.90
11824;DHT22;5969;50.780;7.726;2022-09-03T00:39:09;10.80;99.90
11824;DHT22;5969;50.780;7.726;2022-09-03T00:41:39;10.80;99.90
11824;DHT22;5969;50.780;7.726;2022-09-03T00:47:13;10.90;99.90
11824;DHT22;5969;50.780;7.726;2022-09-03T00:49:53;10.90;99.90
11824;DHT22;5969;50.780;7.726;2022-09-03T00:52:36;11.00;99.90
11824;DHT22;5969;50.780;7.726;2022-09-03T00:55:15;11.00;99.90
11824;DHT22;5969;50.780;7.726;2022-09-03T00:57:57;11.00;99.90
11824;DHT22;5969;50.780;7.726;2022-09-03T01:00:29;11.00;99.90
11824;DHT22;5969;50.780;7.726;2022-09-03T01:03:03;11.00;99.90
11824;DHT22;5969;50.780;7.726;2022-09-03T01:05:47;11.00;99.90
11824;DHT22;5969;50.780;7.726;2022-09-03T01:08:34;10.90;99.90
11824;DHT22;5969;50.780;7.726;2022-09-03T01:11:14;10.90;99.90
11824;DHT22;5969;50.780;7.726;2022-09-03T01:13:48;10.80;99.90
11824;DHT22;5969;50.780;7.726;2022-09-03T01:16:21;10.80;99.90
11824;DHT22;5969;50.780;7.726;2022-09-03T01:18:58;10.80;99.90
11824;DHT22;5969;50.780;7.726;2022-09-03T01:21:45;10.80;99.90
11824;DHT22;5969;50.780;7.726;2022-09-03T01:24:36;10.80;99.90
11824;DHT22;5969;50.780;7.726;2022-09-03T01:27:20;10.80;99.90
11824;DHT22;5969;50.780;7.726;2022-09-03T01:29:55;10.90;99.90
11824;DHT22;5969;50.780;7.726;2022-09-03T01:32:34;10.90;99.90
11824;DHT22;5969;50.780;7.726;2022-09-03T01:35:07;11.00;99.90
11824;DHT22;5969;50.780;7.726;2022-09-03T01:37:46;11.10;99.90
11824;DHT22;5969;50.780;7.726;2022-09-03T01:40:24;11.20;99.90
11824;DHT22;5969;50.780;7.726;2022-09-03T01:43:06;11.30;99.90
11824;DHT22;5969;50.780;7.726;2022-09-03T01:45:46;11.40;99.90
11824;DHT22;5969;50.780;7.726;2022-09-03T01:48:30;11.40;99.90
11824;DHT22;5969;50.780;7.726;2022-09-03T01:51:04;11.50;99.90
11824;DHT22;5969;50.780;7.726;2022-09-03T01:53:49;11.50;99.90
11824;DHT22;5969;50.780;7.726;2022-09-03T01:56:27;11.50;99.90
11824;DHT22;5969;50.780;7.726;2022-09-03T01:59:06;11.50;99.90
11824;DHT22;5969;50.780;7.726;2022-09-03T02:01:40;11.50;99.90
11824;DHT22;5969;50.780;7.726;2022-09-03T02:04:17;11.50;99.90
11824;DHT22;5969;50.780;7.726;2022-09-03T02:06:45;11.50;99.90
11824;DHT22;5969;50.780;7.726;2022-09-03T02:09:13;11.50;99.90
11824;DHT22;5969;50.780;7.726;2022-09-03T02:11:41;11.60;99.90
11824;DHT22;5969;50.780;7.726;2022-09-03T02:14:11;11.60;99.90
11824;DHT22;5969;50.780;7.726;2022-09-03T02:16:40;11.60;99.90
11824;DHT22;5969;50.780;7.726;2022-09-03T02:19:10;11.60;99.90
11824;DHT22;5969;50.780;7.726;2022-09-03T02:21:40;11.60;99.90
11824;DHT22;5969;50.780;7.726;2022-09-03T02:24:09;11.60;99.90
11824;DHT22;5969;50.780;7.726;2022-09-03T02:26:36;11.70;99.90
11824;DHT22;5969;50.780;7.726;2022-09-03T02:29:03;11.70;99.90
11824;DHT22;5969;50.780;7.726;2022-09-03T02:31:30;11.70;99.90
11824;DHT22;5969;50.780;7.726;2022-09-03T02:33:59;11.80;99.90
11824;DHT22;5969;50.780;7.726;2022-09-03T02:36:28;11.80;99.90
11824;DHT22;5969;50.780;7.726;2022-09-03T02:38:56;11.80;99.90
11824;DHT22;5969;50.780;7.726;2022-09-03T02:41:23;11.90;99.90
11824;DHT22;5969;50.780;7.726;2022-09-03T02:43:55;11.90;99.90
11824;DHT22;5969;50.780;7.726;2022-09-03T02:46:28;11.90;99.90
11824;DHT22;5969;50.780;7.726;2022-09-03T02:49:00;11.90;99.90
11824;DHT22;5969;50.780;7.726;2022-09-03T02:51:31;11.90;99.90
11824;DHT22;5969;50.780;7.726;2022-09-03T02:53:58;11.90;99.90
11824;DHT22;5969;50.780;7.726;2022-09-03T02:56:25;12.00;99.90
11824;DHT22;5969;50.780;7.726;2022-09-03T02:58:52;12.10;99.90
11824;DHT22;5969;50.780;7.726;2022-09-03T03:01:19;12.10;99.90
11824;DHT22;5969;50.780;7.726;2022-09-03T03:03:46;12.20;99.90
11824;DHT22;5969;50.780;7.726;2022-09-03T03:06:14;12.30;99.90
11824;DHT22;5969;50.780;7.726;2022-09-03T03:08:41;12.30;99.90
11824;DHT22;5969;50.780;7.726;2022-09-03T03:11:08;12.30;99.90
11824;DHT22;5969;50.780;7.726;2022-09-03T03:13:35;12.30;99.90
11824;DHT22;5969;50.780;7.726;2022-09-03T03:16:04;12.30;99.90
11824;DHT22;5969;50.780;7.726;2022-09-03T03:18:31;12.30;99.90
11824;DHT22;5969;50.780;7.726;2022-09-03T03:21:03;12.30;99.90
11824;DHT22;5969;50.780;7.726;2022-09-03T03:23:32;12.40;99.90
11824;DHT22;5969;50.780;7.726;2022-09-03T03:26:00;12.40;99.90
11824;DHT22;5969;50.780;7.726;2022-09-03T03:28:27;12.40;99.90
11824;DHT22;5969;50.780;7.726;2022-09-03T03:30:56;12.30;99.90
11824;DHT22;5969;50.780;7.726;2022-09-03T03:33:23;12.30;99.90
11824;DHT22;5969;50.780;7.726;2022-09-03T03:35:50;12.30;99.90
11824;DHT22;5969;50.780;7.726;2022-09-03T03:38:17;12.30;99.90
11824;DHT22;5969;50.780;7.726;2022-09-03T03:40:45;12.30;99.90
11824;DHT22;5969;50.780;7.726;2022-09-03T03:43:12;12.20;99.90
11824;DHT22;5969;50.780;7.726;2022-09-03T03:45:39;12.20;99.90
11824;DHT22;5969;50.780;7.726;2022-09-03T03:48:06;12.20;99.90
11824;DHT22;5969;50.780;7.726;2022-09-03T03:50:32;12.10;99.90
11824;DHT22;5969;50.780;7.726;2022-09-03T03:52:59;12.10;99.90
11824;DHT22;5969;50.780;7.726;2022-09-03T03:55:26;12.20;99.90
11824;DHT22;5969;50.780;7.726;2022-09-03T03:57:54;12.20;99.90
11824;DHT22;5969;50.780;7.726;2022-09-03T04:00:21;12.20;99.90
11824;DHT22;5969;50.780;7.726;2022-09-03T04:02:47;12.30;99.90
11824;DHT22;5969;50.780;7.726;2022-09-03T04:05:14;12.30;99.90
11824;DHT22;5969;50.780;7.726;2022-09-03T04:07:41;12.40;99.90
11824;DHT22;5969;50.780;7.726;2022-09-03T04:10:09;12.50;99.90
11824;DHT22;5969;50.780;7.726;2022-09-03T04:12:36;12.60;99.90
11824;DHT22;5969;50.780;7.726;2022-09-03T04:15:04;12.70;99.90
11824;DHT22;5969;50.780;7.726;2022-09-03T04:17:31;12.70;99.90
11824;DHT22;5969;50.780;7.726;2022-09-03T04:19:58;12.70;99.90
11824;DHT22;5969;50.780;7.726;2022-09-03T04:22:26;12.70;99.90
11824;DHT22;5969;50.780;7.726;2022-09-03T04:24:53;12.70;99.90
11824;DHT22;5969;50.780;7.726;2022-09-03T04:27:20;12.70;99.90
11824;DHT22;5969;50.780;7.726;2022-09-03T04:29:47;12.80;99.90
11824;DHT22;5969;50.780;7.726;2022-09-03T04:32:15;12.80;99.90
11824;DHT22;5969;50.780;7.726;2022-09-03T04:34:59;12.80;99.90
11824;DHT22;5969;50.780;7.726;2022-09-03T04:37:26;12.80;99.90
11824;DHT22;5969;50.780;7.726;2022-09-03T04:39:52;12.80;99.90
11824;DHT22;5969;50.780;7.726;2022-09-03T04:42:19;12.80;99.90
11824;DHT22;5969;50.780;7.726;2022-09-03T04:44:46;12.80;99.90
11824;DHT22;5969;50.780;7.726;2022-09-03T04:47:14;12.80;99.90
11824;DHT22;5969;50.780;7.726;2022-09-03T04:49:41;12.70;99.90
11824;DHT22;5969;50.780;7.726;2022-09-03T04:52:07;12.70;99.90
11824;DHT22;5969;50.780;7.726;2022-09-03T04:54:34;12.60;99.90
11824;DHT22;5969;50.780;7.726;2022-09-03T04:57:01;12.50;99.90
11824;DHT22;5969;50.780;7.726;2022-09-03T04:59:28;12.30;99.90
11824;DHT22;5969;50.780;7.726;2022-09-03T05:01:54;12.20;99.90
11824;DHT22;5969;50.780;7.726;2022-09-03T05:04:23;12.20;99.90
11824;DHT22;5969;50.780;7.726;2022-09-03T05:06:49;12.30;99.90
11824;DHT22;5969;50.780;7.726;2022-09-03T05:09:16;12.40;99.90
11824;DHT22;5969;50.780;7.726;2022-09-03T05:11:43;12.50;99.90
11824;DHT22;5969;50.780;7.726;2022-09-03T05:14:11;12.80;99.90
11824;DHT22;5969;50.780;7.726;2022-09-03T05:16:38;12.80;99.90
11824;DHT22;5969;50.780;7.726;2022-09-03T05:19:04;12.90;99.90
11824;DHT22;5969;50.780;7.726;2022-09-03T05:21:34;12.90;99.90
11824;DHT22;5969;50.780;7.726;2022-09-03T05:24:02;13.00;99.90
11824;DHT22;5969;50.780;7.726;2022-09-03T05:26:30;13.10;99.90
11824;DHT22;5969;50.780;7.726;2022-09-03T05:28:59;13.20;99.90
11824;DHT22;5969;50.780;7.726;2022-09-03T05:31:27;13.40;99.90
11824;DHT22;5969;50.780;7.726;2022-09-03T05:33:57;13.60;99.90
11824;DHT22;5969;50.780;7.726;2022-09-03T05:36:25;13.90;99.90
11824;DHT22;5969;50.780;7.726;2022-09-03T05:38:54;14.20;99.90
11824;DHT22;5969;50.780;7.726;2022-09-03T05:41:22;14.40;99.90
11824;DHT22;5969;50.780;7.726;2022-09-03T05:43:51;14.60;99.90
11824;DHT22;5969;50.780;7.726;2022-09-03T05:46:19;14.70;99.90
11824;DHT22;5969;50.780;7.726;2022-09-03T05:48:46;14.80;99.90
11824;DHT22;5969;50.780;7.726;2022-09-03T05:51:14;14.90;99.90
11824;DHT22;5969;50.780;7.726;2022-09-03T05:53:43;14.90;99.90
11824;DHT22;5969;50.780;7.726;2022-09-03T05:56:14;14.90;99.90
11824;DHT22;5969;50.780;7.726;2022-09-03T05:58:43;15.00;99.90
11824;DHT22;5969;50.780;7.726;2022-09-03T06:01:11;14.90;99.90
11824;DHT22;5969;50.780;7.726;2022-09-03T06:03:38;15.00;99.90
11824;DHT22;5969;50.780;7.726;2022-09-03T06:06:06;15.00;99.90
11824;DHT22;5969;50.780;7.726;2022-09-03T06:08:33;15.00;99.90
11824;DHT22;5969;50.780;7.726;2022-09-03T06:11:02;15.10;99.90
11824;DHT22;5969;50.780;7.726;2022-09-03T06:13:31;15.10;99.90
11824;DHT22;5969;50.780;7.726;2022-09-03T06:16:00;15.20;99.90
11824;DHT22;5969;50.780;7.726;2022-09-03T06:18:27;15.30;99.90
11824;DHT22;5969;50.780;7.726;2022-09-03T06:20:54;15.30;99.90
11824;DHT22;5969;50.780;7.726;2022-09-03T06:23:21;15.50;99.90
11824;DHT22;5969;50.780;7.726;2022-09-03T06:25:59;15.50;99.90
11824;DHT22;5969;50.780;7.726;2022-09-03T06:28:26;15.70;99.90
11824;DHT22;5969;50.780;7.726;2022-09-03T06:30:57;15.80;99.90
11824;DHT22;5969;50.780;7.726;2022-09-03T06:33:24;15.90;99.90
11824;DHT22;5969;50.780;7.726;2022-09-03T06:35:52;16.00;99.90
11824;DHT22;5969;50.780;7.726;2022-09-03T06:38:22;16.00;99.90
11824;DHT22;5969;50.780;7.726;2022-09-03T06:40:51;16.00;99.90
11824;DHT22;5969;50.780;7.726;2022-09-03T06:43:18;16.10;99.90
11824;DHT22;5969;50.780;7.726;2022-09-03T06:45:53;16.20;99.90
11824;DHT22;5969;50.780;7.726;2022-09-03T06:48:20;16.20;99.90
11824;DHT22;5969;50.780;7.726;2022-09-03T06:50:57;16.20;99.90
11824;DHT22;5969;50.780;7.726;2022-09-03T06:53:26;16.30;99.90
11824;DHT22;5969;50.780;7.726;2022-09-03T06:55:55;16.40;99.90
11824;DHT22;5969;50.780;7.726;2022-09-03T06:58:22;16.50;99.90
11824;DHT22;5969;50.780;7.726;2022-09-03T07:00:49;16.50;99.90
11824;DHT22;5969;50.780;7.726;2022-09-03T07:03:19;16.60;99.90
11824;DHT22;5969;50.780;7.726;2022-09-03T07:05:46;16.70;99.90
11824;DHT22;5969;50.780;7.726;2022-09-03T07:08:13;16.80;99.90
11824;DHT22;5969;50.780;7.726;2022-09-03T07:10:44;16.80;99.90
11824;DHT22;5969;50.780;7.726;2022-09-03T07:13:12;16.80;99.90
11824;DHT22;5969;50.780;7.726;2022-09-03T07:15:39;16.80;99.90
11824;DHT22;5969;50.780;7.726;2022-09-03T07:18:06;16.80;99.90
11824;DHT22;5969;50.780;7.726;2022-09-03T07:20:34;16.90;99.90
11824;DHT22;5969;50.780;7.726;2022-09-03T07:23:01;17.00;99.90
11824;DHT22;5969;50.780;7.726;2022-09-03T07:25:28;17.10;99.90
11824;DHT22;5969;50.780;7.726;2022-09-03T07:27:55;17.20;99.90
11824;DHT22;5969;50.780;7.726;2022-09-03T07:30:23;17.20;99.90
11824;DHT22;5969;50.780;7.726;2022-09-03T07:32:50;17.20;99.90
11824;DHT22;5969;50.780;7.726;2022-09-03T07:35:18;17.30;99.90
11824;DHT22;5969;50.780;7.726;2022-09-03T07:37:46;17.40;99.90
11824;DHT22;5969;50.780;7.726;2022-09-03T07:40:13;17.40;99.90
11824;DHT22;5969;50.780;7.726;2022-09-03T07:42:43;17.50;99.90
11824;DHT22;5969;50.780;7.726;2022-09-03T07:45:12;17.50;99.90
11824;DHT22;5969;50.780;7.726;2022-09-03T07:47:45;17.60;99.90
11824;DHT22;5969;50.780;7.726;2022-09-03T07:50:12;17.60;99.90
11824;DHT22;5969;50.780;7.726;2022-09-03T07:52:40;17.70;99.90
11824;DHT22;5969;50.780;7.726;2022-09-03T07:55:09;17.80;99.90
11824;DHT22;5969;50.780;7.726;2022-09-03T07:57:36;18.00;99.90
11824;DHT22;5969;50.780;7.726;2022-09-03T08:00:03;18.20;99.90
11824;DHT22;5969;50.780;7.726;2022-09-03T08:02:31;18.30;99.90
11824;DHT22;5969;50.780;7.726;2022-09-03T08:04:58;18.50;99.90
11824;DHT22;5969;50.780;7.726;2022-09-03T08:07:24;18.70;99.90
11824;DHT22;5969;50.780;7.726;2022-09-03T08:09:51;18.70;99.90
11824;DHT22;5969;50.780;7.726;2022-09-03T08:12:19;18.80;99.90
11824;DHT22;5969;50.780;7.726;2022-09-03T08:14:46;18.80;99.90
11824;DHT22;5969;50.780;7.726;2022-09-03T08:17:13;18.80;99.90
11824;DHT22;5969;50.780;7.726;2022-09-03T08:19:40;18.80;99.90
11824;DHT22;5969;50.780;7.726;2022-09-03T08:22:08;18.80;99.90
11824;DHT22;5969;50.780;7.726;2022-09-03T08:24:35;18.80;99.90
11824;DHT22;5969;50.780;7.726;2022-09-03T08:27:01;18.70;99.90
11824;DHT22;5969;50.780;7.726;2022-09-03T08:29:30;18.50;99.90
11824;DHT22;5969;50.780;7.726;2022-09-03T08:31:57;18.50;99.90
11824;DHT22;5969;50.780;7.726;2022-09-03T08:34:24;18.70;99.90
11824;DHT22;5969;50.780;7.726;2022-09-03T08:36:51;18.70;99.90
11824;DHT22;5969;50.780;7.726;2022-09-03T08:39:18;18.70;99.90
11824;DHT22;5969;50.780;7.726;2022-09-03T08:42:17;18.70;99.90
11824;DHT22;5969;50.780;7.726;2022-09-03T08:44:48;18.90;99.90
11824;DHT22;5969;50.780;7.726;2022-09-03T08:47:20;18.90;99.90
11824;DHT22;5969;50.780;7.726;2022-09-03T08:49:51;19.10;99.90
11824;DHT22;5969;50.780;7.726;2022-09-03T08:52:28;19.10;99.90
11824;DHT22;5969;50.780;7.726;2022-09-03T08:55:03;19.00;99.90
11824;DHT22;5969;50.780;7.726;2022-09-03T08:57:41;18.80;99.90
11824;DHT22;5969;50.780;7.726;2022-09-03T09:00:14;18.60;99.90
11824;DHT22;5969;50.780;7.726;2022-09-03T09:02:52;18.70;99.90
11824;DHT22;5969;50.780;7.726;2022-09-03T09:05:24;18.60;99.90
11824;DHT22;5969;50.780;7.726;2022-09-03T09:08:03;18.40;99.90
11824;DHT22;5969;50.780;7.726;2022-09-03T09:10:36;18.60;99.90
11824;DHT22;5969;50.780;7.726;2022-09-03T09:13:13;18.60;99.90
11824;DHT22;5969;50.780;7.726;2022-09-03T09:15:50;18.60;99.90
11824;DHT22;5969;50.780;7.726;2022-09-03T09:18:24;18.60;99.90
11824;DHT22;5969;50.780;7.726;2022-09-03T09:21:01;18.60;99.90
11824;DHT22;5969;50.780;7.726;2022-09-03T09:23:34;18.50;99.90
11824;DHT22;5969;50.780;7.726;2022-09-03T09:26:07;18.50;99.90
11824;DHT22;5969;50.780;7.726;2022-09-03T09:28:37;18.60;99.90
11824;DHT22;5969;50.780;7.726;2022-09-03T09:31:07;18.90;99.90
11824;DHT22;5969;50.780;7.726;2022-09-03T09:33:36;19.20;99.90
11824;DHT22;5969;50.780;7.726;2022-09-03T09:36:06;19.50;99.90
11824;DHT22;5969;50.780;7.726;2022-09-03T09:38:36;19.60;99.90
11824;DHT22;5969;50.780;7.726;2022-09-03T09:41:10;19.70;99.90
11824;DHT22;5969;50.780;7.726;2022-09-03T09:43:37;19.90;99.90
11824;DHT22;5969;50.780;7.726;2022-09-03T09:46:12;19.90;99.90
11824;DHT22;5969;50.780;7.726;2022-09-03T09:48:47;20.00;99.90
11824;DHT22;5969;50.780;7.726;2022-09-03T09:51:19;20.10;99.90
11824;DHT22;5969;50.780;7.726;2022-09-03T09:53:47;20.10;99.90
11824;DHT22;5969;50.780;7.726;2022-09-03T09:56:21;20.30;99.90
11824;DHT22;5969;50.780;7.726;2022-09-03T09:58:49;20.40;99.90
11824;DHT22;5969;50.780;7.726;2022-09-03T10:01:21;20.50;99.90
11824;DHT22;5969;50.780;7.726;2022-09-03T10:03:51;20.50;99.90
11824;DHT22;5969;50.780;7.726;2022-09-03T10:06:22;20.80;99.90
11824;DHT22;5969;50.780;7.726;2022-09-03T10:09:09;21.00;99.90
11824;DHT22;5969;50.780;7.726;2022-09-03T10:11:37;21.20;99.90
11824;DHT22;5969;50.780;7.726;2022-09-03T10:14:12;21.10;99.90
11824;DHT22;5969;50.780;7.726;2022-09-03T10:16:48;20.80;99.90
11824;DHT22;5969;50.780;7.726;2022-09-03T10:19:17;20.80;99.90
11824;DHT22;5969;50.780;7.726;2022-09-03T10:21:48;20.80;99.90
11824;DHT22;5969;50.780;7.726;2022-09-03T10:24:29;20.80;99.90
11824;DHT22;5969;50.780;7.726;2022-09-03T10:26:58;20.90;99.90
11824;DHT22;5969;50.780;7.726;2022-09-03T10:29:26;21.00;99.90
11824;DHT22;5969;50.780;7.726;2022-09-03T10:32:02;20.70;99.90
11824;DHT22;5969;50.780;7.726;2022-09-03T10:34:40;20.80;99.90
11824;DHT22;5969;50.780;7.726;2022-09-03T10:37:18;20.70;99.90
11824;DHT22;5969;50.780;7.726;2022-09-03T10:39:55;20.70;99.90
11824;DHT22;5969;50.780;7.726;2022-09-03T10:42:36;20.80;99.90
11824;DHT22;5969;50.780;7.726;2022-09-03T10:45:15;20.70;99.90
11824;DHT22;5969;50.780;7.726;2022-09-03T10:48:10;20.70;99.90
11824;DHT22;5969;50.780;7.726;2022-09-03T10:50:46;20.70;99.90
11824;DHT22;5969;50.780;7.726;2022-09-03T10:53:25;20.80;99.90
11824;DHT22;5969;50.780;7.726;2022-09-03T10:55:59;20.70;99.90
11824;DHT22;5969;50.780;7.726;2022-09-03T10:58:38;20.40;99.90
11824;DHT22;5969;50.780;7.726;2022-09-03T11:01:15;20.40;99.90
11824;DHT22;5969;50.780;7.726;2022-09-03T11:03:55;20.30;99.90
11824;DHT22;5969;50.780;7.726;2022-09-03T11:06:26;20.40;99.90
11824;DHT22;5969;50.780;7.726;2022-09-03T11:08:57;20.60;99.90
11824;DHT22;5969;50.780;7.726;2022-09-03T11:11:30;21.10;99.90
11824;DHT22;5969;50.780;7.726;2022-09-03T11:14:02;21.40;99.90
11824;DHT22;5969;50.780;7.726;2022-09-03T11:16:31;21.80;99.90
11824;DHT22;5969;50.780;7.726;2022-09-03T11:19:03;21.80;99.90
11824;DHT22;5969;50.780;7.726;2022-09-03T11:21:33;21.90;99.90
11824;DHT22;5969;50.780;7.726;2022-09-03T11:24:06;21.80;99.90
11824;DHT22;5969;50.780;7.726;2022-09-03T11:26:36;22.40;99.90
11824;DHT22;5969;50.780;7.726;2022-09-03T11:29:10;22.70;99.90
11824;DHT22;5969;50.780;7.726;2022-09-03T11:31:45;22.50;99.90
11824;DHT22;5969;50.780;7.726;2022-09-03T11:34:28;22.70;99.90
11824;DHT22;5969;50.780;7.726;2022-09-03T11:37:15;22.80;99.90
11824;DHT22;5969;50.780;7.726;2022-09-03T11:39:43;23.00;99.90
11824;DHT22;5969;50.780;7.726;2022-09-03T11:42:18;22.70;99.90
11824;DHT22;5969;50.780;7.726;2022-09-03T11:44:50;22.70;99.90
11824;DHT22;5969;50.780;7.726;2022-09-03T11:47:21;22.80;99.90
11824;DHT22;5969;50.780;7.726;2022-09-03T11:49:51;23.10;99.90
11824;DHT22;5969;50.780;7.726;2022-09-03T11:52:28;23.30;99.90
11824;DHT22;5969;50.780;7.726;2022-09-03T11:54:56;23.40;99.90
11824;DHT22;5969;50.780;7.726;2022-09-03T11:57:27;23.40;99.90
11824;DHT22;5969;50.780;7.726;2022-09-03T12:00:07;23.30;99.90
11824;DHT22;5969;50.780;7.726;2022-09-03T12:02:36;22.80;99.90
11824;DHT22;5969;50.780;7.726;2022-09-03T12:05:20;22.90;99.90
11824;DHT22;5969;50.780;7.726;2022-09-03T12:08:07;23.30;99.90
11824;DHT22;5969;50.780;7.726;2022-09-03T12:10:41;23.20;99.90
11824;DHT22;5969;50.780;7.726;2022-09-03T12:13:39;23.00;99.90
11824;DHT22;5969;50.780;7.726;2022-09-03T12:16:29;23.00;99.90
11824;DHT22;5969;50.780;7.726;2022-09-03T12:19:02;23.30;99.90
11824;DHT22;5969;50.780;7.726;2022-09-03T12:21:36;23.60;99.90
11824;DHT22;5969;50.780;7.726;2022-09-03T12:24:04;24.10;99.90
11824;DHT22;5969;50.780;7.726;2022-09-03T12:26:38;24.20;99.90
11824;DHT22;5969;50.780;7.726;2022-09-03T12:29:06;24.40;99.90
11824;DHT22;5969;50.780;7.726;2022-09-03T12:31:43;24.40;99.90
11824;DHT22;5969;50.780;7.726;2022-09-03T12:34:13;24.40;99.90
11824;DHT22;5969;50.780;7.726;2022-09-03T12:36:43;24.50;99.90
11824;DHT22;5969;50.780;7.726;2022-09-03T12:39:11;24.60;99.90
11824;DHT22;5969;50.780;7.726;2022-09-03T12:41:51;24.60;99.90
11824;DHT22;5969;50.780;7.726;2022-09-03T12:44:24;24.50;99.90
11824;DHT22;5969;50.780;7.726;2022-09-03T12:46:59;24.50;99.90
11824;DHT22;5969;50.780;7.726;2022-09-03T12:49:26;24.20;99.90
11824;DHT22;5969;50.780;7.726;2022-09-03T12:52:01;24.00;99.90
11824;DHT22;5969;50.780;7.726;2022-09-03T12:54:28;24.40;99.90
11824;DHT22;5969;50.780;7.726;2022-09-03T12:56:57;24.60;99.90
11824;DHT22;5969;50.780;7.726;2022-09-03T12:59:26;24.40;99.90
11824;DHT22;5969;50.780;7.726;2022-09-03T13:01:59;24.40;99.90
11824;DHT22;5969;50.780;7.726;2022-09-03T13:04:30;24.60;99.90
11824;DHT22;5969;50.780;7.726;2022-09-03T13:07:02;24.70;99.90
11824;DHT22;5969;50.780;7.726;2022-09-03T13:09:34;25.00;99.90
11824;DHT22;5969;50.780;7.726;2022-09-03T13:12:03;25.10;99.90
11824;DHT22;5969;50.780;7.726;2022-09-03T13:14:41;25.10;99.90
11824;DHT22;5969;50.780;7.726;2022-09-03T13:17:29;25.30;99.90
11824;DHT22;5969;50.780;7.726;2022-09-03T13:20:27;25.40;99.90
11824;DHT22;5969;50.780;7.726;2022-09-03T13:26:00;25.80;99.90
11824;DHT22;5969;50.780;7.726;2022-09-03T13:28:36;26.00;99.90
11824;DHT22;5969;50.780;7.726;2022-09-03T13:31:18;26.10;99.90
11824;DHT22;5969;50.780;7.726;2022-09-03T13:33:49;25.70;99.90
11824;DHT22;5969;50.780;7.726;2022-09-03T13:36:23;25.10;99.90
11824;DHT22;5969;50.780;7.726;2022-09-03T13:38:55;24.60;99.90
11824;DHT22;5969;50.780;7.726;2022-09-03T13:41:31;24.60;99.90
11824;DHT22;5969;50.780;7.726;2022-09-03T13:44:05;24.60;99.90
11824;DHT22;5969;50.780;7.726;2022-09-03T13:46:40;25.30;99.90
11824;DHT22;5969;50.780;7.726;2022-09-03T13:49:16;26.00;99.90
11824;DHT22;5969;50.780;7.726;2022-09-03T13:52:09;26.00;99.90
11824;DHT22;5969;50.780;7.726;2022-09-03T13:54:43;25.60;99.90
11824;DHT22;5969;50.780;7.726;2022-09-03T13:57:23;26.20;99.90
11824;DHT22;5969;50.780;7.726;2022-09-03T13:59:55;26.80;99.90
11824;DHT22;5969;50.780;7.726;2022-09-03T14:02:31;27.80;99.90
11824;DHT22;5969;50.780;7.726;2022-09-03T14:05:04;27.50;99.80
11824;DHT22;5969;50.780;7.726;2022-09-03T14:07:57;27.10;99.60
11824;DHT22;5969;50.780;7.726;2022-09-03T14:10:36;27.40;99.90
11824;DHT22;5969;50.780;7.726;2022-09-03T14:13:15;28.30;99.00
11824;DHT22;5969;50.780;7.726;2022-09-03T14:15:48;27.60;99.70
11824;DHT22;5969;50.780;7.726;2022-09-03T14:18:30;26.70;99.90
11824;DHT22;5969;50.780;7.726;2022-09-03T14:21:03;26.70;99.90
11824;DHT22;5969;50.780;7.726;2022-09-03T14:23:39;28.10;99.70
11824;DHT22;5969;50.780;7.726;2022-09-03T14:26:20;29.40;98.50
11824;DHT22;5969;50.780;7.726;2022-09-03T14:28:48;30.50;97.60
11824;DHT22;5969;50.780;7.726;2022-09-03T14:31:29;29.60;97.40
11824;DHT22;5969;50.780;7.726;2022-09-03T14:34:07;29.50;98.10
11824;DHT22;5969;50.780;7.726;2022-09-03T14:36:39;30.80;96.70
11824;DHT22;5969;50.780;7.726;2022-09-03T14:39:29;30.30;97.60
11824;DHT22;5969;50.780;7.726;2022-09-03T14:42:17;32.20;96.40
11824;DHT22;5969;50.780;7.726;2022-09-03T14:45:07;32.40;95.00
11824;DHT22;5969;50.780;7.726;2022-09-03T14:47:49;30.40;95.90
11824;DHT22;5969;50.780;7.726;2022-09-03T14:50:33;28.30;97.00
11824;DHT22;5969;50.780;7.726;2022-09-03T14:53:15;26.80;98.30
11824;DHT22;5969;50.780;7.726;2022-09-03T14:56:04;25.60;99.60
11824;DHT22;5969;50.780;7.726;2022-09-03T14:58:43;25.40;99.90
11824;DHT22;5969;50.780;7.726;2022-09-03T15:01:17;25.50;99.90
11824;DHT22;5969;50.780;7.726;2022-09-03T15:06:54;26.40;99.90
11824;DHT22;5969;50.780;7.726;2022-09-03T15:09:31;27.80;98.60
11824;DHT22;5969;50.780;7.726;2022-09-03T15:12:04;26.90;98.90
11824;DHT22;5969;50.780;7.726;2022-09-03T15:14:40;26.40;99.30
11824;DHT22;5969;50.780;7.726;2022-09-03T15:17:28;26.50;99.60
11824;DHT22;5969;50.780;7.726;2022-09-03T15:20:07;27.60;98.80
11824;DHT22;5969;50.780;7.726;2022-09-03T15:25:40;30.30;96.50
11824;DHT22;5969;50.780;7.726;2022-09-03T15:28:12;32.40;95.00
11824;DHT22;5969;50.780;7.726;2022-09-03T15:30:51;33.20;94.80
11824;DHT22;5969;50.780;7.726;2022-09-03T15:33:29;34.10;93.20
11824;DHT22;5969;50.780;7.726;2022-09-03T15:36:11;34.00;92.40
11824;DHT22;5969;50.780;7.726;2022-09-03T15:38:46;33.20;92.40
11824;DHT22;5969;50.780;7.726;2022-09-03T15:41:24;30.10;94.00
11824;DHT22;5969;50.780;7.726;2022-09-03T15:43:58;30.00;95.20
11824;DHT22;5969;50.780;7.726;2022-09-03T15:46:39;31.30;94.20
11824;DHT22;5969;50.780;7.726;2022-09-03T15:49:20;30.80;94.20
11824;DHT22;5969;50.780;7.726;2022-09-03T15:52:07;29.20;95.10
11824;DHT22;5969;50.780;7.726;2022-09-03T15:54:42;29.10;95.40
11824;DHT22;5969;50.780;7.726;2022-09-03T15:57:16;28.60;96.60
11824;DHT22;5969;50.780;7.726;2022-09-03T15:59:51;29.60;95.60
11824;DHT22;5969;50.780;7.726;2022-09-03T16:02:26;28.70;95.70
11824;DHT22;5969;50.780;7.726;2022-09-03T16:05:05;27.50;96.40
11824;DHT22;5969;50.780;7.726;2022-09-03T16:10:38;27.20;97.50
11824;DHT22;5969;50.780;7.726;2022-09-03T16:13:13;28.00;96.40
11824;DHT22;5969;50.780;7.726;2022-09-03T16:15:48;27.40;97.00
11824;DHT22;5969;50.780;7.726;2022-09-03T16:18:24;25.90;97.90
11824;DHT22;5969;50.780;7.726;2022-09-03T16:20:58;25.20;98.70
11824;DHT22;5969;50.780;7.726;2022-09-03T16:23:30;24.60;99.20
11824;DHT22;5969;50.780;7.726;2022-09-03T16:26:02;24.50;99.70
11824;DHT22;5969;50.780;7.726;2022-09-03T16:28:34;24.40;99.90
11824;DHT22;5969;50.780;7.726;2022-09-03T16:31:13;24.20;99.90
11824;DHT22;5969;50.780;7.726;2022-09-03T16:33:48;24.10;99.90